sensor_id;sensor_type;location;lat;lon;timestamp;pressure;altitude;pressure_sealevel;temperature;humidity
26915;BME280;14480;52.608;13.416;2023-03-13T09:35:46;142259.50;;;-7.08;100.00
26915;BME280;14480;52.608;13.416;2023-03-13T09:40:52;142276.81;;;-7.01;100.00
26915;BME280;14480;52.608;13.416;2023-03-13T09:46:10;142259.50;;;-7.08;100.00
26915;BME280;14480;52.608;13.416;2023-03-13T09:51:17;142269.41;;;-7.04;100.00
26915;BME280;14480;52.608;13.416;2023-03-13T09:56:22;142264.47;;;-7.06;100.00
26915;BME280;14480;52.608;13.416;2023-03-13T10:01:27;142299.09;;;-6.92;100.00
26915;BME280;14480;52.608;13.416;2023-03-13T10:06:34;142286.69;;;-6.97;100.00
26915;BME280;14480;52.608;13.416;2023-03-13T10:11:43;142291.63;;;-6.95;100.00
26915;BME280;14480;52.608;13.416;2023-03-13T10:16:48;142354.75;;;-6.69;100.00
26915;BME280;14480;52.608;13.416;2023-03-13T10:22:00;142400.47;;;-6.50;100.00
26915;BME280;14480;52.608;13.416;2023-03-13T10:27:13;142457.38;;;-6.27;100.00
26915;BME280;14480;52.608;13.416;2023-03-13T10:32:17;142532.88;;;-5.96;100.00
26915;BME280;14480;52.608;13.416;2023-03-13T10:37:27;142584.84;;;-5.74;100.00
26915;BME280;14480;52.608;13.416;2023-03-13T10:42:31;142640.56;;;-5.51;100.00
26915;BME280;14480;52.608;13.416;2023-03-13T10:47:38;142723.53;;;-5.17;100.00
26915;BME280;14480;52.608;13.416;2023-03-13T10:52:44;142775.56;;;-4.96;100.00
26915;BME280;14480;52.608;13.416;2023-03-13T10:57:51;142849.88;;;-4.65;100.00
26915;BME280;14480;52.608;13.416;2023-03-13T11:02:57;142896.97;;;-4.46;100.00
26915;BME280;14480;52.608;13.416;2023-03-13T11:08:11;142982.50;;;-4.11;100.00
26915;BME280;14480;52.608;13.416;2023-03-13T11:13:16;143068.06;;;-3.76;100.00
26915;BME280;14480;52.608;13.416;2023-03-13T11:18:39;143090.38;;;-3.67;100.00
26915;BME280;14480;52.608;13.416;2023-03-13T11:23:46;143115.19;;;-3.57;100.00
26915;BME280;14480;52.608;13.416;2023-03-13T11:28:56;143175.97;;;-3.32;100.00
26915;BME280;14480;52.608;13.416;2023-03-13T11:34:04;143220.59;;;-3.13;100.00
26915;BME280;14480;52.608;13.416;2023-03-13T11:39:28;143210.69;;;-3.17;100.00
26915;BME280;14480;52.608;13.416;2023-03-13T11:44:40;143265.28;;;-2.95;100.00
26915;BME280;14480;52.608;13.416;2023-03-13T11:50:00;143260.34;;;-2.97;100.00
26915;BME280;14480;52.608;13.416;2023-03-13T11:55:28;143310.00;;;-2.77;100.00
26915;BME280;14480;52.608;13.416;2023-03-13T12:00:43;143327.34;;;-2.70;100.00
26915;BME280;14480;52.608;13.416;2023-03-13T12:05:51;143424.22;;;-2.30;100.00
26915;BME280;14480;52.608;13.416;2023-03-13T12:11:03;143444.03;;;-2.22;100.00
26915;BME280;14480;52.608;13.416;2023-03-13T12:16:11;143545.91;;;-1.80;100.00
26915;BME280;14480;52.608;13.416;2023-03-13T12:21:18;143579.44;;;-1.66;100.00
26915;BME280;14480;52.608;13.416;2023-03-13T12:37:52;143491.25;;;-2.02;100.00
26915;BME280;14480;52.608;13.416;2023-03-13T12:42:57;143492.47;;;-2.02;100.00
26915;BME280;14480;52.608;13.416;2023-03-13T12:48:16;143548.38;;;-1.79;100.00
26915;BME280;14480;52.608;13.416;2023-03-13T12:53:34;143596.84;;;-1.59;100.00
26915;BME280;14480;52.608;13.416;2023-03-13T12:58:44;143682.59;;;-1.24;100.00
26915;BME280;14480;52.608;13.416;2023-03-13T13:03:51;143788.25;;;-0.81;100.00
26915;BME280;14480;52.608;13.416;2023-03-13T13:09:05;143803.16;;;-0.75;100.00
26915;BME280;14480;52.608;13.416;2023-03-13T13:19:42;143903.91;;;-0.34;100.00
26915;BME280;14480;52.608;13.416;2023-03-13T13:24:49;143867.81;;;-0.48;100.00
26915;BME280;14480;52.608;13.416;2023-03-13T13:29:54;143854.16;;;-0.54;100.00
26915;BME280;14480;52.608;13.416;2023-03-13T13:35:02;143844.16;;;-0.58;100.00
26915;BME280;14480;52.608;13.416;2023-03-13T13:45:36;143835.47;;;-0.62;100.00
26915;BME280;14480;52.608;13.416;2023-03-13T13:50:43;143861.59;;;-0.51;100.00
26915;BME280;14480;52.608;13.416;2023-03-13T13:56:24;143925.00;;;-0.25;100.00
26915;BME280;14480;52.608;13.416;2023-03-13T14:01:31;143887.72;;;-0.40;100.00
26915;BME280;14480;52.608;13.416;2023-03-13T14:06:35;143901.44;;;-0.35;100.00
26915;BME280;14480;52.608;13.416;2023-03-13T14:11:40;143928.75;;;-0.23;100.00
26915;BME280;14480;52.608;13.416;2023-03-13T14:16:45;143865.31;;;-0.49;100.00
26915;BME280;14480;52.608;13.416;2023-03-13T14:21:48;143908.88;;;-0.32;100.00
26915;BME280;14480;52.608;13.416;2023-03-13T14:26:52;143916.31;;;-0.28;100.00
26915;BME280;14480;52.608;13.416;2023-03-13T14:31:57;143983.47;;;-0.01;100.00
26915;BME280;14480;52.608;13.416;2023-03-13T14:37:00;143930.03;;;-0.23;100.00
26915;BME280;14480;52.608;13.416;2023-03-13T14:42:19;143895.16;;;-0.37;100.00
26915;BME280;14480;52.608;13.416;2023-03-13T14:47:24;143943.69;;;-0.17;100.00
26915;BME280;14480;52.608;13.416;2023-03-13T14:52:28;143935.00;;;-0.21;100.00
26915;BME280;14480;52.608;13.416;2023-03-13T14:57:34;143923.78;;;-0.25;100.00
26915;BME280;14480;52.608;13.416;2023-03-13T15:02:41;143926.25;;;-0.24;100.00
26915;BME280;14480;52.608;13.416;2023-03-13T15:07:46;143948.66;;;-0.15;100.00
26915;BME280;14480;52.608;13.416;2023-03-13T15:12:50;143942.44;;;-0.18;100.00
26915;BME280;14480;52.608;13.416;2023-03-13T15:17:55;143931.28;;;-0.22;100.00
26915;BME280;14480;52.608;13.416;2023-03-13T15:23:00;143954.88;;;-0.13;100.00
26915;BME280;14480;52.608;13.416;2023-03-13T15:28:08;143885.22;;;-0.41;100.00
26915;BME280;14480;52.608;13.416;2023-03-13T15:33:17;143815.56;;;-0.70;100.00
26915;BME280;14480;52.608;13.416;2023-03-13T15:38:22;143753.41;;;-0.95;100.00
26915;BME280;14480;52.608;13.416;2023-03-13T15:43:26;143758.38;;;-0.93;100.00
26915;BME280;14480;52.608;13.416;2023-03-13T15:48:31;143693.75;;;-1.20;100.00
26915;BME280;14480;52.608;13.416;2023-03-13T15:53:36;143699.97;;;-1.17;100.00
26915;BME280;14480;52.608;13.416;2023-03-13T15:58:40;143671.38;;;-1.29;100.00
26915;BME280;14480;52.608;13.416;2023-03-13T16:03:45;143661.44;;;-1.33;100.00
26915;BME280;14480;52.608;13.416;2023-03-13T16:08:49;143677.63;;;-1.26;100.00
26915;BME280;14480;52.608;13.416;2023-03-13T16:13:52;143680.09;;;-1.25;100.00
26915;BME280;14480;52.608;13.416;2023-03-13T16:18:58;143657.72;;;-1.34;100.00
26915;BME280;14480;52.608;13.416;2023-03-13T16:24:02;143621.72;;;-1.49;100.00
26915;BME280;14480;52.608;13.416;2023-03-13T16:29:05;143605.53;;;-1.56;100.00
26915;BME280;14480;52.608;13.416;2023-03-13T16:34:10;143594.38;;;-1.60;100.00
26915;BME280;14480;52.608;13.416;2023-03-13T16:39:14;143576.94;;;-1.67;100.00
26915;BME280;14480;52.608;13.416;2023-03-13T16:44:17;143519.81;;;-1.91;100.00
26915;BME280;14480;52.608;13.416;2023-03-13T16:49:23;143512.38;;;-1.94;100.00
26915;BME280;14480;52.608;13.416;2023-03-13T16:54:26;143514.84;;;-1.93;100.00
26915;BME280;14480;52.608;13.416;2023-03-13T16:59:30;143523.53;;;-1.89;100.00
26915;BME280;14480;52.608;13.416;2023-03-13T17:04:34;143503.66;;;-1.97;100.00
26915;BME280;14480;52.608;13.416;2023-03-13T17:09:40;143521.06;;;-1.90;100.00
26915;BME280;14480;52.608;13.416;2023-03-13T17:14:44;143516.09;;;-1.92;100.00
26915;BME280;14480;52.608;13.416;2023-03-13T17:19:52;143496.22;;;-2.00;100.00
26915;BME280;14480;52.608;13.416;2023-03-13T17:24:58;143471.38;;;-2.11;100.00
26915;BME280;14480;52.608;13.416;2023-03-13T17:30:02;143452.75;;;-2.18;100.00
26915;BME280;14480;52.608;13.416;2023-03-13T17:35:08;143441.56;;;-2.23;100.00
26915;BME280;14480;52.608;13.416;2023-03-13T17:40:27;143408.03;;;-2.37;100.00
26915;BME280;14480;52.608;13.416;2023-03-13T17:45:40;143385.69;;;-2.46;100.00
26915;BME280;14480;52.608;13.416;2023-03-13T17:50:51;143372.06;;;-2.51;100.00
26915;BME280;14480;52.608;13.416;2023-03-13T17:55:55;143337.31;;;-2.66;100.00
26915;BME280;14480;52.608;13.416;2023-03-13T18:00:58;143324.88;;;-2.71;100.00
26915;BME280;14480;52.608;13.416;2023-03-13T18:06:08;143322.38;;;-2.72;100.00
26915;BME280;14480;52.608;13.416;2023-03-13T18:11:19;143300.03;;;-2.81;100.00
26915;BME280;14480;52.608;13.416;2023-03-13T18:16:24;143292.59;;;-2.84;100.00
26915;BME280;14480;52.608;13.416;2023-03-13T18:21:30;143305.00;;;-2.79;100.00
26915;BME280;14480;52.608;13.416;2023-03-13T18:26:35;143291.38;;;-2.84;100.00
26915;BME280;14480;52.608;13.416;2023-03-13T18:31:39;143303.75;;;-2.79;100.00
26915;BME280;14480;52.608;13.416;2023-03-13T18:36:46;143265.28;;;-2.95;100.00
26915;BME280;14480;52.608;13.416;2023-03-13T18:41:50;143260.34;;;-2.97;100.00
26915;BME280;14480;52.608;13.416;2023-03-13T18:46:54;143270.25;;;-2.93;100.00
26915;BME280;14480;52.608;13.416;2023-03-13T18:51:59;143250.38;;;-3.01;100.00
26915;BME280;14480;52.608;13.416;2023-03-13T18:57:09;143233.03;;;-3.08;100.00
26915;BME280;14480;52.608;13.416;2023-03-13T19:02:13;143239.22;;;-3.06;100.00
26915;BME280;14480;52.608;13.416;2023-03-13T19:07:20;143234.28;;;-3.08;100.00
26915;BME280;14480;52.608;13.416;2023-03-13T19:12:26;143246.66;;;-3.03;100.00
26915;BME280;14480;52.608;13.416;2023-03-13T19:17:30;143233.03;;;-3.08;100.00
26915;BME280;14480;52.608;13.416;2023-03-13T19:22:37;143249.16;;;-3.02;100.00
26915;BME280;14480;52.608;13.416;2023-03-13T19:27:40;143259.09;;;-2.98;100.00
26915;BME280;14480;52.608;13.416;2023-03-13T19:32:44;143245.44;;;-3.03;100.00
26915;BME280;14480;52.608;13.416;2023-03-13T19:37:49;143239.22;;;-3.06;100.00
26915;BME280;14480;52.608;13.416;2023-03-13T19:42:52;143241.72;;;-3.05;100.00
26915;BME280;14480;52.608;13.416;2023-03-13T19:47:58;143231.81;;;-3.09;100.00
26915;BME280;14480;52.608;13.416;2023-03-13T19:53:03;143199.53;;;-3.22;100.00
26915;BME280;14480;52.608;13.416;2023-03-13T19:58:09;143200.78;;;-3.21;100.00
26915;BME280;14480;52.608;13.416;2023-03-13T20:03:13;143169.78;;;-3.34;100.00
26915;BME280;14480;52.608;13.416;2023-03-13T20:08:18;143159.81;;;-3.38;100.00
26915;BME280;14480;52.608;13.416;2023-03-13T20:13:21;143157.34;;;-3.39;100.00
26915;BME280;14480;52.608;13.416;2023-03-13T20:18:25;143148.69;;;-3.43;100.00
26915;BME280;14480;52.608;13.416;2023-03-13T20:23:30;143137.47;;;-3.47;100.00
26915;BME280;14480;52.608;13.416;2023-03-13T20:28:34;143126.34;;;-3.52;100.00
26915;BME280;14480;52.608;13.416;2023-03-13T20:33:37;143111.47;;;-3.58;100.00
26915;BME280;14480;52.608;13.416;2023-03-13T20:38:43;143105.25;;;-3.61;100.00
26915;BME280;14480;52.608;13.416;2023-03-13T20:43:47;143102.75;;;-3.62;100.00
26915;BME280;14480;52.608;13.416;2023-03-13T20:48:51;143084.19;;;-3.69;100.00
26915;BME280;14480;52.608;13.416;2023-03-13T20:53:56;143091.63;;;-3.66;100.00
26915;BME280;14480;52.608;13.416;2023-03-13T20:58:59;143089.16;;;-3.67;100.00
26915;BME280;14480;52.608;13.416;2023-03-13T21:04:03;143074.25;;;-3.73;100.00
26915;BME280;14480;52.608;13.416;2023-03-13T21:09:08;143074.25;;;-3.73;100.00
26915;BME280;14480;52.608;13.416;2023-03-13T21:14:12;143070.53;;;-3.75;100.00
26915;BME280;14480;52.608;13.416;2023-03-13T21:19:15;143076.72;;;-3.72;100.00
26915;BME280;14480;52.608;13.416;2023-03-13T21:24:20;143080.44;;;-3.71;100.00
26915;BME280;14480;52.608;13.416;2023-03-13T21:29:24;143076.72;;;-3.72;100.00
26915;BME280;14480;52.608;13.416;2023-03-13T21:34:27;143082.94;;;-3.70;100.00
26915;BME280;14480;52.608;13.416;2023-03-13T21:39:32;143087.91;;;-3.68;100.00
26915;BME280;14480;52.608;13.416;2023-03-13T21:44:38;143080.44;;;-3.71;100.00
26915;BME280;14480;52.608;13.416;2023-03-13T21:49:44;143081.72;;;-3.70;100.00
26915;BME280;14480;52.608;13.416;2023-03-13T21:54:51;143060.63;;;-3.79;100.00
26915;BME280;14480;52.608;13.416;2023-03-13T21:59:54;143054.44;;;-3.82;100.00
26915;BME280;14480;52.608;13.416;2023-03-13T22:04:58;143011.00;;;-3.99;100.00
26915;BME280;14480;52.608;13.416;2023-03-13T22:10:03;143012.25;;;-3.99;100.00
26915;BME280;14480;52.608;13.416;2023-03-13T22:15:07;143022.16;;;-3.95;100.00
26915;BME280;14480;52.608;13.416;2023-03-13T22:20:11;143032.09;;;-3.91;100.00
26915;BME280;14480;52.608;13.416;2023-03-13T22:25:16;143018.44;;;-3.96;100.00
26915;BME280;14480;52.608;13.416;2023-03-13T22:30:19;143037.06;;;-3.89;100.00
26915;BME280;14480;52.608;13.416;2023-03-13T22:35:23;143030.88;;;-3.91;100.00
26915;BME280;14480;52.608;13.416;2023-03-13T22:40:27;143029.63;;;-3.92;100.00
26915;BME280;14480;52.608;13.416;2023-03-13T22:45:33;143015.97;;;-3.97;100.00
26915;BME280;14480;52.608;13.416;2023-03-13T22:50:37;143007.28;;;-4.01;100.00
26915;BME280;14480;52.608;13.416;2023-03-13T22:55:42;143007.28;;;-4.01;100.00
